sensor_id;sensor_type;location;lat;lon;timestamp;P1;durP1;ratioP1;P2;durP2;ratioP2
19940;SDS011;10132;50.864;5.176;2023-06-22T00:00:00;5.03;;;4.50;;
19940;SDS011;10132;50.864;5.176;2023-06-22T00:02:26;5.88;;;4.38;;
19940;SDS011;10132;50.864;5.176;2023-06-22T00:04:46;5.97;;;4.80;;
19940;SDS011;10132;50.864;5.176;2023-06-22T00:07:09;5.38;;;3.97;;
19940;SDS011;10132;50.864;5.176;2023-06-22T00:09:23;6.30;;;4.10;;
19940;SDS011;10132;50.864;5.176;2023-06-22T00:11:42;4.93;;;4.20;;
19940;SDS011;10132;50.864;5.176;2023-06-22T00:13:51;4.43;;;3.83;;
19940;SDS011;10132;50.864;5.176;2023-06-22T00:15:55;4.85;;;4.18;;
19940;SDS011;10132;50.864;5.176;2023-06-22T00:17:58;4.78;;;3.65;;
19940;SDS011;10132;50.864;5.176;2023-06-22T00:20:12;4.13;;;3.80;;
19940;SDS011;10132;50.864;5.176;2023-06-22T00:22:19;4.45;;;4.05;;
19940;SDS011;10132;50.864;5.176;2023-06-22T00:24:28;6.97;;;4.15;;
19940;SDS011;10132;50.864;5.176;2023-06-22T00:26:39;4.30;;;4.00;;
19940;SDS011;10132;50.864;5.176;2023-06-22T00:28:45;5.63;;;3.80;;
19940;SDS011;10132;50.864;5.176;2023-06-22T00:30:57;6.45;;;4.10;;
19940;SDS011;10132;50.864;5.176;2023-06-22T00:33:26;7.00;;;4.35;;
19940;SDS011;10132;50.864;5.176;2023-06-22T00:35:54;4.65;;;3.83;;
19940;SDS011;10132;50.864;5.176;2023-06-22T00:38:27;7.72;;;4.70;;
19940;SDS011;10132;50.864;5.176;2023-06-22T00:40:58;5.55;;;3.88;;
19940;SDS011;10132;50.864;5.176;2023-06-22T00:43:14;5.32;;;4.65;;
19940;SDS011;10132;50.864;5.176;2023-06-22T00:45:36;5.28;;;4.78;;
19940;SDS011;10132;50.864;5.176;2023-06-22T00:48:05;6.78;;;4.90;;
19940;SDS011;10132;50.864;5.176;2023-06-22T00:50:33;5.63;;;5.03;;
19940;SDS011;10132;50.864;5.176;2023-06-22T00:53:03;6.32;;;5.07;;
19940;SDS011;10132;50.864;5.176;2023-06-22T00:55:26;7.03;;;5.28;;
19940;SDS011;10132;50.864;5.176;2023-06-22T00:57:53;7.03;;;5.20;;
19940;SDS011;10132;50.864;5.176;2023-06-22T01:00:10;6.30;;;4.90;;
19940;SDS011;10132;50.864;5.176;2023-06-22T01:02:35;6.13;;;4.95;;
19940;SDS011;10132;50.864;5.176;2023-06-22T01:04:54;7.25;;;5.13;;
19940;SDS011;10132;50.864;5.176;2023-06-22T01:07:10;5.30;;;4.90;;
19940;SDS011;10132;50.864;5.176;2023-06-22T01:09:25;6.13;;;4.90;;
19940;SDS011;10132;50.864;5.176;2023-06-22T01:11:59;5.60;;;5.10;;
19940;SDS011;10132;50.864;5.176;2023-06-22T01:14:15;6.90;;;5.28;;
19940;SDS011;10132;50.864;5.176;2023-06-22T01:16:38;5.72;;;5.22;;
19940;SDS011;10132;50.864;5.176;2023-06-22T01:19:09;5.07;;;4.60;;
19940;SDS011;10132;50.864;5.176;2023-06-22T01:21:48;5.32;;;4.82;;
19940;SDS011;10132;50.864;5.176;2023-06-22T01:24:17;5.30;;;4.25;;
19940;SDS011;10132;50.864;5.176;2023-06-22T01:26:50;6.82;;;4.88;;
19940;SDS011;10132;50.864;5.176;2023-06-22T01:29:29;5.60;;;4.65;;
19940;SDS011;10132;50.864;5.176;2023-06-22T01:31:44;5.45;;;4.82;;
19940;SDS011;10132;50.864;5.176;2023-06-22T01:34:04;5.60;;;4.78;;
19940;SDS011;10132;50.864;5.176;2023-06-22T01:36:22;4.93;;;4.43;;
19940;SDS011;10132;50.864;5.176;2023-06-22T01:38:45;5.10;;;4.60;;
19940;SDS011;10132;50.864;5.176;2023-06-22T01:41:01;6.20;;;5.20;;
19940;SDS011;10132;50.864;5.176;2023-06-22T01:43:22;5.13;;;4.63;;
19940;SDS011;10132;50.864;5.176;2023-06-22T01:45:58;6.20;;;5.07;;
19940;SDS011;10132;50.864;5.176;2023-06-22T01:48:09;5.22;;;4.72;;
19940;SDS011;10132;50.864;5.176;2023-06-22T01:50:24;6.75;;;4.53;;
19940;SDS011;10132;50.864;5.176;2023-06-22T01:52:42;7.53;;;5.00;;
19940;SDS011;10132;50.864;5.176;2023-06-22T01:55:00;6.07;;;4.80;;
19940;SDS011;10132;50.864;5.176;2023-06-22T01:57:10;6.60;;;4.45;;
19940;SDS011;10132;50.864;5.176;2023-06-22T01:59:32;4.95;;;3.92;;
19940;SDS011;10132;50.864;5.176;2023-06-22T02:04:26;4.55;;;3.88;;
19940;SDS011;10132;50.864;5.176;2023-06-22T02:06:44;5.63;;;4.03;;
19940;SDS011;10132;50.864;5.176;2023-06-22T02:08:55;4.57;;;4.03;;
19940;SDS011;10132;50.864;5.176;2023-06-22T02:11:16;5.13;;;4.00;;
19940;SDS011;10132;50.864;5.176;2023-06-22T02:13:36;6.50;;;4.60;;
19940;SDS011;10132;50.864;5.176;2023-06-22T02:16:06;4.72;;;4.32;;
19940;SDS011;10132;50.864;5.176;2023-06-22T02:21:05;6.68;;;4.38;;
19940;SDS011;10132;50.864;5.176;2023-06-22T02:23:15;4.60;;;4.20;;
19940;SDS011;10132;50.864;5.176;2023-06-22T02:25:48;7.32;;;4.43;;
19940;SDS011;10132;50.864;5.176;2023-06-22T02:28:08;5.85;;;4.70;;
19940;SDS011;10132;50.864;5.176;2023-06-22T02:30:19;5.05;;;4.55;;
19940;SDS011;10132;50.864;5.176;2023-06-22T02:32:38;5.38;;;4.80;;
19940;SDS011;10132;50.864;5.176;2023-06-22T02:35:01;4.80;;;4.40;;
19940;SDS011;10132;50.864;5.176;2023-06-22T02:37:23;6.70;;;4.30;;
19940;SDS011;10132;50.864;5.176;2023-06-22T02:39:31;6.18;;;4.90;;
19940;SDS011;10132;50.864;5.176;2023-06-22T02:41:48;6.63;;;4.50;;
19940;SDS011;10132;50.864;5.176;2023-06-22T02:44:15;8.90;;;5.00;;
19940;SDS011;10132;50.864;5.176;2023-06-22T02:46:37;6.72;;;5.15;;
19940;SDS011;10132;50.864;5.176;2023-06-22T02:48:56;6.95;;;5.22;;
19940;SDS011;10132;50.864;5.176;2023-06-22T02:51:04;5.82;;;5.13;;
19940;SDS011;10132;50.864;5.176;2023-06-22T02:53:06;7.68;;;5.20;;
19940;SDS011;10132;50.864;5.176;2023-06-22T02:55:15;6.60;;;5.45;;
19940;SDS011;10132;50.864;5.176;2023-06-22T02:57:18;9.70;;;5.68;;
19940;SDS011;10132;50.864;5.176;2023-06-22T02:59:22;10.02;;;6.60;;
19940;SDS011;10132;50.864;5.176;2023-06-22T03:01:52;9.13;;;6.53;;
19940;SDS011;10132;50.864;5.176;2023-06-22T03:03:58;7.43;;;6.00;;
19940;SDS011;10132;50.864;5.176;2023-06-22T03:06:13;8.45;;;6.22;;
19940;SDS011;10132;50.864;5.176;2023-06-22T03:08:28;9.35;;;6.07;;
19940;SDS011;10132;50.864;5.176;2023-06-22T03:10:35;10.48;;;7.10;;
19940;SDS011;10132;50.864;5.176;2023-06-22T03:12:52;8.98;;;6.85;;
19940;SDS011;10132;50.864;5.176;2023-06-22T03:15:00;10.20;;;7.60;;
19940;SDS011;10132;50.864;5.176;2023-06-22T03:17:07;9.05;;;6.95;;
19940;SDS011;10132;50.864;5.176;2023-06-22T03:19:15;8.45;;;7.60;;
19940;SDS011;10132;50.864;5.176;2023-06-22T03:21:29;9.98;;;7.68;;
19940;SDS011;10132;50.864;5.176;2023-06-22T03:23:34;8.93;;;8.02;;
19940;SDS011;10132;50.864;5.176;2023-06-22T03:25:49;10.10;;;7.90;;
19940;SDS011;10132;50.864;5.176;2023-06-22T03:27:56;10.50;;;8.02;;
19940;SDS011;10132;50.864;5.176;2023-06-22T03:30:04;8.88;;;7.97;;
19940;SDS011;10132;50.864;5.176;2023-06-22T03:32:22;9.65;;;8.10;;
19940;SDS011;10132;50.864;5.176;2023-06-22T03:34:28;10.68;;;8.40;;
19940;SDS011;10132;50.864;5.176;2023-06-22T03:36:35;8.60;;;7.47;;
19940;SDS011;10132;50.864;5.176;2023-06-22T03:39:07;9.45;;;7.95;;
19940;SDS011;10132;50.864;5.176;2023-06-22T03:41:17;10.52;;;8.48;;
19940;SDS011;10132;50.864;5.176;2023-06-22T03:43:23;10.73;;;8.68;;
19940;SDS011;10132;50.864;5.176;2023-06-22T03:45:32;9.90;;;8.25;;
19940;SDS011;10132;50.864;5.176;2023-06-22T03:47:46;10.25;;;8.55;;
19940;SDS011;10132;50.864;5.176;2023-06-22T03:49:55;8.20;;;7.38;;
19940;SDS011;10132;50.864;5.176;2023-06-22T03:52:13;14.00;;;7.75;;
19940;SDS011;10132;50.864;5.176;2023-06-22T03:54:25;11.88;;;7.88;;
19940;SDS011;10132;50.864;5.176;2023-06-22T03:56:31;8.88;;;7.80;;
19940;SDS011;10132;50.864;5.176;2023-06-22T03:58:49;9.95;;;7.43;;
19940;SDS011;10132;50.864;5.176;2023-06-22T04:00:58;10.35;;;7.45;;
19940;SDS011;10132;50.864;5.176;2023-06-22T04:03:08;11.32;;;7.60;;
19940;SDS011;10132;50.864;5.176;2023-06-22T04:05:15;8.98;;;7.60;;
19940;SDS011;10132;50.864;5.176;2023-06-22T04:07:23;9.32;;;6.50;;
19940;SDS011;10132;50.864;5.176;2023-06-22T04:09:37;9.00;;;7.30;;
19940;SDS011;10132;50.864;5.176;2023-06-22T04:11:59;10.77;;;8.05;;
19940;SDS011;10132;50.864;5.176;2023-06-22T04:14:05;9.30;;;7.53;;
19940;SDS011;10132;50.864;5.176;2023-06-22T04:16:12;9.02;;;8.13;;
19940;SDS011;10132;50.864;5.176;2023-06-22T04:18:23;11.65;;;8.52;;
19940;SDS011;10132;50.864;5.176;2023-06-22T04:20:46;10.65;;;8.35;;
19940;SDS011;10132;50.864;5.176;2023-06-22T04:23:14;9.60;;;8.32;;
19940;SDS011;10132;50.864;5.176;2023-06-22T04:25:20;11.68;;;8.52;;
19940;SDS011;10132;50.864;5.176;2023-06-22T04:27:24;11.23;;;8.88;;
19940;SDS011;10132;50.864;5.176;2023-06-22T04:29:28;10.25;;;9.15;;
19940;SDS011;10132;50.864;5.176;2023-06-22T04:31:33;11.07;;;9.68;;
19940;SDS011;10132;50.864;5.176;2023-06-22T04:33:38;13.73;;;9.40;;
19940;SDS011;10132;50.864;5.176;2023-06-22T04:35:44;11.77;;;10.20;;
19940;SDS011;10132;50.864;5.176;2023-06-22T04:37:47;11.75;;;10.48;;
19940;SDS011;10132;50.864;5.176;2023-06-22T04:40:02;11.05;;;9.95;;
19940;SDS011;10132;50.864;5.176;2023-06-22T04:42:09;9.88;;;8.85;;
19940;SDS011;10132;50.864;5.176;2023-06-22T04:44:14;14.32;;;10.20;;
19940;SDS011;10132;50.864;5.176;2023-06-22T04:46:27;12.15;;;10.77;;
19940;SDS011;10132;50.864;5.176;2023-06-22T04:48:38;11.77;;;10.57;;
19940;SDS011;10132;50.864;5.176;2023-06-22T04:50:41;16.50;;;12.77;;
19940;SDS011;10132;50.864;5.176;2023-06-22T04:52:48;14.27;;;11.60;;
19940;SDS011;10132;50.864;5.176;2023-06-22T04:55:00;12.63;;;11.40;;
19940;SDS011;10132;50.864;5.176;2023-06-22T04:57:04;13.95;;;11.38;;
19940;SDS011;10132;50.864;5.176;2023-06-22T04:59:24;14.60;;;12.55;;
19940;SDS011;10132;50.864;5.176;2023-06-22T05:01:42;13.88;;;12.32;;
19940;SDS011;10132;50.864;5.176;2023-06-22T05:03:52;15.70;;;12.30;;
19940;SDS011;10132;50.864;5.176;2023-06-22T05:05:58;14.65;;;13.00;;
19940;SDS011;10132;50.864;5.176;2023-06-22T05:08:02;17.13;;;13.82;;
19940;SDS011;10132;50.864;5.176;2023-06-22T05:10:17;14.52;;;13.02;;
19940;SDS011;10132;50.864;5.176;2023-06-22T05:12:25;14.57;;;12.63;;
19940;SDS011;10132;50.864;5.176;2023-06-22T05:14:38;15.70;;;12.85;;
19940;SDS011;10132;50.864;5.176;2023-06-22T05:16:42;14.15;;;12.65;;
19940;SDS011;10132;50.864;5.176;2023-06-22T05:18:46;15.30;;;13.73;;
19940;SDS011;10132;50.864;5.176;2023-06-22T05:20:57;15.35;;;13.65;;
19940;SDS011;10132;50.864;5.176;2023-06-22T05:23:02;15.90;;;13.95;;
19940;SDS011;10132;50.864;5.176;2023-06-22T05:25:07;17.38;;;14.52;;
19940;SDS011;10132;50.864;5.176;2023-06-22T05:27:19;18.27;;;14.55;;
19940;SDS011;10132;50.864;5.176;2023-06-22T05:29:25;17.05;;;14.05;;
19940;SDS011;10132;50.864;5.176;2023-06-22T05:31:36;16.30;;;14.15;;
19940;SDS011;10132;50.864;5.176;2023-06-22T05:33:56;15.95;;;14.25;;
19940;SDS011;10132;50.864;5.176;2023-06-22T05:36:03;16.85;;;14.93;;
19940;SDS011;10132;50.864;5.176;2023-06-22T05:38:08;16.38;;;14.77;;
19940;SDS011;10132;50.864;5.176;2023-06-22T05:40:16;18.77;;;16.17;;
19940;SDS011;10132;50.864;5.176;2023-06-22T05:42:30;17.35;;;15.57;;
19940;SDS011;10132;50.864;5.176;2023-06-22T05:44:33;18.48;;;15.38;;
19940;SDS011;10132;50.864;5.176;2023-06-22T05:46:40;17.55;;;15.70;;
19940;SDS011;10132;50.864;5.176;2023-06-22T05:48:45;17.00;;;15.38;;
19940;SDS011;10132;50.864;5.176;2023-06-22T05:50:48;18.30;;;15.20;;
19940;SDS011;10132;50.864;5.176;2023-06-22T05:52:51;17.23;;;15.48;;
19940;SDS011;10132;50.864;5.176;2023-06-22T05:54:55;18.52;;;16.52;;
19940;SDS011;10132;50.864;5.176;2023-06-22T05:57:07;18.55;;;16.58;;
19940;SDS011;10132;50.864;5.176;2023-06-22T05:59:12;20.63;;;16.80;;
19940;SDS011;10132;50.864;5.176;2023-06-22T06:01:17;18.73;;;16.92;;
19940;SDS011;10132;50.864;5.176;2023-06-22T06:03:21;19.30;;;17.33;;
19940;SDS011;10132;50.864;5.176;2023-06-22T06:05:41;19.70;;;17.73;;
19940;SDS011;10132;50.864;5.176;2023-06-22T06:07:46;20.98;;;17.73;;
19940;SDS011;10132;50.864;5.176;2023-06-22T06:09:53;21.45;;;17.40;;
19940;SDS011;10132;50.864;5.176;2023-06-22T06:11:56;19.25;;;17.38;;
19940;SDS011;10132;50.864;5.176;2023-06-22T06:14:16;19.73;;;17.73;;
19940;SDS011;10132;50.864;5.176;2023-06-22T06:16:21;20.00;;;17.65;;
19940;SDS011;10132;50.864;5.176;2023-06-22T06:18:25;19.60;;;17.60;;
19940;SDS011;10132;50.864;5.176;2023-06-22T06:20:35;19.75;;;17.80;;
19940;SDS011;10132;50.864;5.176;2023-06-22T06:22:38;21.55;;;19.30;;
19940;SDS011;10132;50.864;5.176;2023-06-22T06:24:43;20.85;;;18.88;;
19940;SDS011;10132;50.864;5.176;2023-06-22T06:26:50;21.08;;;18.90;;
19940;SDS011;10132;50.864;5.176;2023-06-22T06:28:53;20.63;;;18.50;;
19940;SDS011;10132;50.864;5.176;2023-06-22T06:31:02;18.75;;;16.75;;
19940;SDS011;10132;50.864;5.176;2023-06-22T06:33:14;20.83;;;18.63;;
19940;SDS011;10132;50.864;5.176;2023-06-22T06:35:17;20.08;;;18.00;;
19940;SDS011;10132;50.864;5.176;2023-06-22T06:37:23;19.08;;;17.30;;
19940;SDS011;10132;50.864;5.176;2023-06-22T06:39:28;21.35;;;16.83;;
19940;SDS011;10132;50.864;5.176;2023-06-22T06:41:45;19.65;;;17.75;;
19940;SDS011;10132;50.864;5.176;2023-06-22T06:43:49;20.25;;;18.25;;
19940;SDS011;10132;50.864;5.176;2023-06-22T06:45:54;20.10;;;18.05;;
19940;SDS011;10132;50.864;5.176;2023-06-22T06:48:02;20.70;;;18.48;;
19940;SDS011;10132;50.864;5.176;2023-06-22T06:50:13;20.08;;;18.10;;
19940;SDS011;10132;50.864;5.176;2023-06-22T06:52:24;19.15;;;17.15;;
19940;SDS011;10132;50.864;5.176;2023-06-22T06:54:29;20.95;;;18.85;;
19940;SDS011;10132;50.864;5.176;2023-06-22T06:56:32;19.30;;;17.25;;
19940;SDS011;10132;50.864;5.176;2023-06-22T06:58:50;19.80;;;17.90;;
19940;SDS011;10132;50.864;5.176;2023-06-22T07:01:02;20.20;;;17.58;;
19940;SDS011;10132;50.864;5.176;2023-06-22T07:03:10;18.77;;;16.88;;
19940;SDS011;10132;50.864;5.176;2023-06-22T07:05:13;18.33;;;16.42;;
19940;SDS011;10132;50.864;5.176;2023-06-22T07:07:16;18.48;;;16.45;;
19940;SDS011;10132;50.864;5.176;2023-06-22T07:09:20;19.42;;;17.45;;
19940;SDS011;10132;50.864;5.176;2023-06-22T07:11:36;16.65;;;14.95;;
19940;SDS011;10132;50.864;5.176;2023-06-22T07:13:42;21.40;;;17.55;;
19940;SDS011;10132;50.864;5.176;2023-06-22T07:15:53;17.73;;;16.02;;
19940;SDS011;10132;50.864;5.176;2023-06-22T07:17:56;18.67;;;16.90;;
19940;SDS011;10132;50.864;5.176;2023-06-22T07:20:05;17.90;;;16.00;;
19940;SDS011;10132;50.864;5.176;2023-06-22T07:24:40;20.67;;;16.40;;
19940;SDS011;10132;50.864;5.176;2023-06-22T07:26:54;18.60;;;15.48;;
19940;SDS011;10132;50.864;5.176;2023-06-22T07:28:59;19.42;;;16.13;;
19940;SDS011;10132;50.864;5.176;2023-06-22T07:31:02;19.33;;;15.27;;
19940;SDS011;10132;50.864;5.176;2023-06-22T07:33:10;19.85;;;15.88;;
19940;SDS011;10132;50.864;5.176;2023-06-22T07:35:15;19.42;;;15.73;;
19940;SDS011;10132;50.864;5.176;2023-06-22T07:37:20;17.42;;;14.98;;
19940;SDS011;10132;50.864;5.176;2023-06-22T07:39:24;19.23;;;14.57;;
19940;SDS011;10132;50.864;5.176;2023-06-22T07:41:30;18.73;;;14.30;;
19940;SDS011;10132;50.864;5.176;2023-06-22T07:43:39;18.00;;;14.75;;
19940;SDS011;10132;50.864;5.176;2023-06-22T07:45:44;19.85;;;14.40;;
19940;SDS011;10132;50.864;5.176;2023-06-22T07:47:53;19.90;;;14.55;;
19940;SDS011;10132;50.864;5.176;2023-06-22T07:49:59;17.08;;;13.30;;
19940;SDS011;10132;50.864;5.176;2023-06-22T07:52:08;18.10;;;13.15;;
19940;SDS011;10132;50.864;5.176;2023-06-22T07:54:19;19.67;;;14.13;;
19940;SDS011;10132;50.864;5.176;2023-06-22T07:56:22;17.58;;;13.30;;
19940;SDS011;10132;50.864;5.176;2023-06-22T07:58:26;17.75;;;14.20;;
19940;SDS011;10132;50.864;5.176;2023-06-22T08:00:36;18.65;;;13.27;;
19940;SDS011;10132;50.864;5.176;2023-06-22T08:02:46;16.17;;;13.07;;
19940;SDS011;10132;50.864;5.176;2023-06-22T08:04:49;18.92;;;14.75;;
19940;SDS011;10132;50.864;5.176;2023-06-22T08:06:53;17.25;;;13.70;;
19940;SDS011;10132;50.864;5.176;2023-06-22T08:08:57;22.33;;;14.40;;
19940;SDS011;10132;50.864;5.176;2023-06-22T08:11:03;17.55;;;14.60;;
19940;SDS011;10132;50.864;5.176;2023-06-22T08:13:06;21.80;;;15.00;;
19940;SDS011;10132;50.864;5.176;2023-06-22T08:15:09;18.73;;;15.00;;
19940;SDS011;10132;50.864;5.176;2023-06-22T08:17:15;18.52;;;15.38;;
19940;SDS011;10132;50.864;5.176;2023-06-22T08:19:21;16.05;;;14.05;;
19940;SDS011;10132;50.864;5.176;2023-06-22T08:21:24;19.90;;;15.20;;
19940;SDS011;10132;50.864;5.176;2023-06-22T08:23:29;16.10;;;14.40;;
19940;SDS011;10132;50.864;5.176;2023-06-22T08:25:37;20.55;;;15.40;;
19940;SDS011;10132;50.864;5.176;2023-06-22T08:27:44;18.02;;;15.13;;
19940;SDS011;10132;50.864;5.176;2023-06-22T08:29:49;21.95;;;16.23;;
19940;SDS011;10132;50.864;5.176;2023-06-22T08:31:55;18.30;;;16.17;;
19940;SDS011;10132;50.864;5.176;2023-06-22T08:33:57;18.52;;;15.77;;
19940;SDS011;10132;50.864;5.176;2023-06-22T08:36:00;20.42;;;16.58;;
19940;SDS011;10132;50.864;5.176;2023-06-22T08:38:11;19.92;;;16.45;;
19940;SDS011;10132;50.864;5.176;2023-06-22T08:40:22;16.83;;;15.05;;
19940;SDS011;10132;50.864;5.176;2023-06-22T08:42:31;19.48;;;17.52;;
19940;SDS011;10132;50.864;5.176;2023-06-22T08:44:34;19.20;;;17.13;;
19940;SDS011;10132;50.864;5.176;2023-06-22T08:46:43;19.08;;;16.75;;
19940;SDS011;10132;50.864;5.176;2023-06-22T08:48:57;19.75;;;17.67;;
19940;SDS011;10132;50.864;5.176;2023-06-22T08:51:04;20.58;;;17.88;;
19940;SDS011;10132;50.864;5.176;2023-06-22T08:53:07;22.92;;;18.05;;
19940;SDS011;10132;50.864;5.176;2023-06-22T08:55:09;21.10;;;18.80;;
19940;SDS011;10132;50.864;5.176;2023-06-22T08:57:14;20.15;;;18.02;;
19940;SDS011;10132;50.864;5.176;2023-06-22T09:02:02;20.75;;;18.55;;
19940;SDS011;10132;50.864;5.176;2023-06-22T09:04:18;20.88;;;18.67;;
19940;SDS011;10132;50.864;5.176;2023-06-22T09:06:27;19.88;;;17.75;;
19940;SDS011;10132;50.864;5.176;2023-06-22T09:08:43;21.48;;;19.25;;
19940;SDS011;10132;50.864;5.176;2023-06-22T09:10:51;20.40;;;17.95;;
19940;SDS011;10132;50.864;5.176;2023-06-22T09:12:54;21.98;;;19.75;;
19940;SDS011;10132;50.864;5.176;2023-06-22T09:15:10;22.52;;;20.15;;
19940;SDS011;10132;50.864;5.176;2023-06-22T09:17:15;21.45;;;19.35;;
19940;SDS011;10132;50.864;5.176;2023-06-22T09:19:20;22.50;;;20.20;;
19940;SDS011;10132;50.864;5.176;2023-06-22T09:21:26;20.40;;;18.30;;
19940;SDS011;10132;50.864;5.176;2023-06-22T09:23:36;20.77;;;18.58;;
19940;SDS011;10132;50.864;5.176;2023-06-22T09:25:52;20.95;;;18.77;;
19940;SDS011;10132;50.864;5.176;2023-06-22T09:27:57;20.60;;;18.63;;
19940;SDS011;10132;50.864;5.176;2023-06-22T09:30:10;20.90;;;18.77;;
19940;SDS011;10132;50.864;5.176;2023-06-22T09:32:18;21.17;;;18.13;;
19940;SDS011;10132;50.864;5.176;2023-06-22T09:34:23;23.98;;;19.13;;
19940;SDS011;10132;50.864;5.176;2023-06-22T09:36:40;22.30;;;20.15;;
19940;SDS011;10132;50.864;5.176;2023-06-22T09:38:44;22.33;;;20.20;;
19940;SDS011;10132;50.864;5.176;2023-06-22T09:40:56;20.83;;;18.63;;
19940;SDS011;10132;50.864;5.176;2023-06-22T09:42:58;23.88;;;18.73;;
19940;SDS011;10132;50.864;5.176;2023-06-22T09:45:02;20.83;;;18.80;;
19940;SDS011;10132;50.864;5.176;2023-06-22T09:47:08;19.42;;;17.73;;
19940;SDS011;10132;50.864;5.176;2023-06-22T09:49:12;21.27;;;19.27;;
19940;SDS011;10132;50.864;5.176;2023-06-22T09:51:19;21.90;;;19.40;;
19940;SDS011;10132;50.864;5.176;2023-06-22T09:53:26;22.83;;;20.50;;
19940;SDS011;10132;50.864;5.176;2023-06-22T09:55:33;22.70;;;20.25;;
19940;SDS011;10132;50.864;5.176;2023-06-22T09:57:52;22.80;;;20.50;;
19940;SDS011;10132;50.864;5.176;2023-06-22T09:59:58;23.38;;;21.23;;
19940;SDS011;10132;50.864;5.176;2023-06-22T10:02:01;23.98;;;21.67;;
19940;SDS011;10132;50.864;5.176;2023-06-22T10:04:06;25.20;;;22.52;;
19940;SDS011;10132;50.864;5.176;2023-06-22T10:06:09;25.73;;;23.33;;
19940;SDS011;10132;50.864;5.176;2023-06-22T10:08:12;25.50;;;23.08;;
19940;SDS011;10132;50.864;5.176;2023-06-22T10:10:16;26.17;;;23.88;;
19940;SDS011;10132;50.864;5.176;2023-06-22T10:12:35;24.95;;;22.65;;
19940;SDS011;10132;50.864;5.176;2023-06-22T10:14:39;24.80;;;22.42;;
19940;SDS011;10132;50.864;5.176;2023-06-22T10:16:51;23.20;;;21.10;;
19940;SDS011;10132;50.864;5.176;2023-06-22T10:19:02;25.63;;;23.08;;
19940;SDS011;10132;50.864;5.176;2023-06-22T10:21:07;24.67;;;22.27;;
19940;SDS011;10132;50.864;5.176;2023-06-22T10:23:13;26.20;;;23.42;;
19940;SDS011;10132;50.864;5.176;2023-06-22T10:25:18;27.30;;;24.42;;
19940;SDS011;10132;50.864;5.176;2023-06-22T10:29:44;28.25;;;25.35;;
19940;SDS011;10132;50.864;5.176;2023-06-22T10:31:50;28.25;;;25.40;;
19940;SDS011;10132;50.864;5.176;2023-06-22T10:33:54;31.55;;;28.02;;
19940;SDS011;10132;50.864;5.176;2023-06-22T10:35:59;30.23;;;27.27;;
19940;SDS011;10132;50.864;5.176;2023-06-22T10:38:04;31.50;;;28.55;;
19940;SDS011;10132;50.864;5.176;2023-06-22T10:40:08;31.38;;;28.08;;
19940;SDS011;10132;50.864;5.176;2023-06-22T10:42:13;34.35;;;29.42;;
19940;SDS011;10132;50.864;5.176;2023-06-22T10:44:16;32.85;;;29.27;;
19940;SDS011;10132;50.864;5.176;2023-06-22T10:46:21;34.13;;;30.45;;
19940;SDS011;10132;50.864;5.176;2023-06-22T10:48:36;35.97;;;30.52;;
19940;SDS011;10132;50.864;5.176;2023-06-22T10:50:42;34.40;;;30.67;;
19940;SDS011;10132;50.864;5.176;2023-06-22T10:52:45;34.65;;;31.15;;
19940;SDS011;10132;50.864;5.176;2023-06-22T10:54:49;35.40;;;31.67;;
19940;SDS011;10132;50.864;5.176;2023-06-22T10:57:11;36.67;;;33.17;;
19940;SDS011;10132;50.864;5.176;2023-06-22T10:59:18;37.75;;;34.15;;
19940;SDS011;10132;50.864;5.176;2023-06-22T11:01:26;38.38;;;34.33;;
19940;SDS011;10132;50.864;5.176;2023-06-22T11:03:35;39.40;;;35.20;;
19940;SDS011;10132;50.864;5.176;2023-06-22T11:05:39;39.60;;;35.47;;
19940;SDS011;10132;50.864;5.176;2023-06-22T11:07:43;37.92;;;34.10;;
19940;SDS011;10132;50.864;5.176;2023-06-22T11:09:46;39.88;;;35.95;;
19940;SDS011;10132;50.864;5.176;2023-06-22T11:12:09;40.95;;;36.92;;
19940;SDS011;10132;50.864;5.176;2023-06-22T11:14:12;40.08;;;36.05;;
19940;SDS011;10132;50.864;5.176;2023-06-22T11:16:19;38.00;;;34.25;;
19940;SDS011;10132;50.864;5.176;2023-06-22T11:18:27;37.42;;;33.42;;
19940;SDS011;10132;50.864;5.176;2023-06-22T11:20:31;38.65;;;34.95;;
19940;SDS011;10132;50.864;5.176;2023-06-22T11:22:38;38.70;;;34.92;;
19940;SDS011;10132;50.864;5.176;2023-06-22T11:24:45;39.33;;;35.38;;
19940;SDS011;10132;50.864;5.176;2023-06-22T11:26:49;38.78;;;35.08;;
19940;SDS011;10132;50.864;5.176;2023-06-22T11:28:57;40.38;;;36.63;;
19940;SDS011;10132;50.864;5.176;2023-06-22T11:31:00;38.53;;;34.55;;
19940;SDS011;10132;50.864;5.176;2023-06-22T11:33:09;39.00;;;35.25;;
19940;SDS011;10132;50.864;5.176;2023-06-22T11:35:25;38.42;;;34.65;;
19940;SDS011;10132;50.864;5.176;2023-06-22T11:37:28;38.05;;;34.03;;
19940;SDS011;10132;50.864;5.176;2023-06-22T11:39:32;39.50;;;35.65;;
19940;SDS011;10132;50.864;5.176;2023-06-22T11:41:41;39.80;;;36.00;;
19940;SDS011;10132;50.864;5.176;2023-06-22T11:43:46;41.80;;;37.70;;
19940;SDS011;10132;50.864;5.176;2023-06-22T11:45:51;42.20;;;38.13;;
19940;SDS011;10132;50.864;5.176;2023-06-22T11:47:59;42.88;;;38.72;;
19940;SDS011;10132;50.864;5.176;2023-06-22T11:50:02;41.42;;;37.38;;
19940;SDS011;10132;50.864;5.176;2023-06-22T11:52:06;44.20;;;39.75;;
19940;SDS011;10132;50.864;5.176;2023-06-22T11:54:20;44.28;;;40.08;;
19940;SDS011;10132;50.864;5.176;2023-06-22T11:56:26;43.05;;;38.42;;
19940;SDS011;10132;50.864;5.176;2023-06-22T11:58:41;43.95;;;39.60;;
19940;SDS011;10132;50.864;5.176;2023-06-22T12:00:53;43.95;;;39.65;;
19940;SDS011;10132;50.864;5.176;2023-06-22T12:02:58;46.55;;;41.85;;
19940;SDS011;10132;50.864;5.176;2023-06-22T12:05:05;44.83;;;40.50;;
19940;SDS011;10132;50.864;5.176;2023-06-22T12:07:15;44.88;;;40.50;;
19940;SDS011;10132;50.864;5.176;2023-06-22T12:09:18;45.08;;;40.55;;
19940;SDS011;10132;50.864;5.176;2023-06-22T12:11:20;44.80;;;40.50;;
19940;SDS011;10132;50.864;5.176;2023-06-22T12:13:27;46.60;;;41.67;;
19940;SDS011;10132;50.864;5.176;2023-06-22T12:15:30;45.28;;;40.78;;
19940;SDS011;10132;50.864;5.176;2023-06-22T12:17:40;48.58;;;43.78;;
19940;SDS011;10132;50.864;5.176;2023-06-22T12:19:47;48.33;;;43.25;;
19940;SDS011;10132;50.864;5.176;2023-06-22T12:21:52;47.38;;;42.85;;
19940;SDS011;10132;50.864;5.176;2023-06-22T12:23:57;48.45;;;43.67;;
19940;SDS011;10132;50.864;5.176;2023-06-22T12:26:00;47.78;;;43.03;;
19940;SDS011;10132;50.864;5.176;2023-06-22T12:28:11;48.22;;;43.50;;
19940;SDS011;10132;50.864;5.176;2023-06-22T12:30:30;47.47;;;42.75;;
19940;SDS011;10132;50.864;5.176;2023-06-22T12:32:37;47.15;;;42.55;;
19940;SDS011;10132;50.864;5.176;2023-06-22T12:34:56;47.95;;;43.25;;
19940;SDS011;10132;50.864;5.176;2023-06-22T12:37:04;46.15;;;41.63;;
19940;SDS011;10132;50.864;5.176;2023-06-22T12:39:12;45.17;;;40.72;;
19940;SDS011;10132;50.864;5.176;2023-06-22T12:41:23;46.58;;;41.97;;
19940;SDS011;10132;50.864;5.176;2023-06-22T12:43:26;46.78;;;42.38;;
19940;SDS011;10132;50.864;5.176;2023-06-22T12:45:32;47.92;;;43.28;;
19940;SDS011;10132;50.864;5.176;2023-06-22T12:47:38;46.92;;;42.30;;
19940;SDS011;10132;50.864;5.176;2023-06-22T12:49:47;47.67;;;42.92;;
19940;SDS011;10132;50.864;5.176;2023-06-22T12:54:12;46.28;;;41.58;;
19940;SDS011;10132;50.864;5.176;2023-06-22T12:56:18;45.90;;;41.58;;
19940;SDS011;10132;50.864;5.176;2023-06-22T12:58:22;47.53;;;42.80;;
19940;SDS011;10132;50.864;5.176;2023-06-22T13:00:31;46.90;;;42.30;;
19940;SDS011;10132;50.864;5.176;2023-06-22T13:02:34;47.70;;;42.75;;